Time;durP1;ratioP1;P1;durP2;ratioP2;P2;SDS_P1;SDS_P2;PMS_P1;PMS_P2;Temp;Humidity;BMP_temperature;BMP_pressure;BME280_temperature;BME280_humidity;BME280_pressure;Samples;Min_cycle;Max_cycle;Signal;HPM_P1;HPM_P2
2024/01/16 00:01:25;;;;;;;6.43;2.83;;;;;;;0.40;100.00;99549.88;5055133;28;20206;-73
2024/01/16 00:03:55;;;;;;;8.53;3.13;;;;;;;0.40;100.00;99536.72;5054996;28;20226;-73
2024/01/16 00:06:24;;;;;;;8.30;2.73;;;;;;;0.40;100.00;99539.34;5054994;28;20202;-73
2024/01/16 00:08:52;;;;;;;6.50;2.53;;;;;;;0.39;100.00;99539.47;5054664;28;20660;-73
2024/01/16 00:11:21;;;;;;;6.47;2.10;;;;;;;0.41;100.00;99548.91;5054866;28;20221;-73
2024/01/16 00:13:49;;;;;;;3.73;2.20;;;;;;;0.40;100.00;99549.03;5054784;28;20257;-73
2024/01/16 00:16:18;;;;;;;4.93;2.60;;;;;;;0.39;100.00;99552.63;5054801;28;20301;-73
2024/01/16 00:18:47;;;;;;;5.40;2.40;;;;;;;0.39;100.00;99569.25;5054763;28;20288;-73
2024/01/16 00:21:17;;;;;;;5.60;2.77;;;;;;;0.40;100.00;99565.69;5054697;28;20293;-73
2024/01/16 00:23:45;;;;;;;7.40;3.20;;;;;;;0.43;100.00;99568.06;5054604;28;20225;-73
2024/01/16 00:26:21;;;;;;;5.17;3.03;;;;;;;0.41;100.00;99572.59;5054635;28;20206;-73
2024/01/16 00:28:50;;;;;;;6.80;3.07;;;;;;;0.44;100.00;99577.63;5054605;28;20194;-73
2024/01/16 00:31:20;;;;;;;4.97;3.00;;;;;;;0.42;100.00;99581.34;5054450;28;20202;-73
2024/01/16 00:33:48;;;;;;;6.07;3.63;;;;;;;0.45;100.00;99588.97;5054099;28;20232;-73
2024/01/16 00:36:18;;;;;;;5.90;3.30;;;;;;;0.45;100.00;99596.88;5054095;28;20240;-73
2024/01/16 00:38:47;;;;;;;6.60;3.30;;;;;;;0.42;100.00;99597.97;5054073;28;20557;-73
2024/01/16 00:41:15;;;;;;;5.80;3.20;;;;;;;0.41;100.00;99583.13;5054300;28;20206;-73
2024/01/16 00:43:45;;;;;;;5.77;3.93;;;;;;;0.46;100.00;99601.19;5053873;28;20579;-73
2024/01/16 00:46:13;;;;;;;6.77;4.13;;;;;;;0.45;100.00;99594.25;5054262;28;20245;-73
2024/01/16 00:48:42;;;;;;;5.60;3.50;;;;;;;0.46;100.00;99602.03;5054165;28;20202;-73
2024/01/16 00:51:11;;;;;;;6.27;3.27;;;;;;;0.41;100.00;99614.72;5054109;28;20214;-73
2024/01/16 00:53:43;;;;;;;7.20;2.97;;;;;;;0.41;100.00;99614.72;5053657;28;20325;-73
2024/01/16 00:56:13;;;;;;;5.80;2.40;;;;;;;0.40;100.00;99601.69;5054093;28;20321;-73
2024/01/16 00:58:42;;;;;;;3.83;1.97;;;;;;;0.39;100.00;99624.56;5054025;28;20227;-73
2024/01/16 01:01:10;;;;;;;4.67;2.30;;;;;;;0.38;100.00;99619.38;5053969;28;20202;-73
2024/01/16 01:03:39;;;;;;;4.07;1.77;;;;;;;0.39;100.00;99629.81;5053462;28;20249;-73
2024/01/16 01:06:08;;;;;;;3.37;2.00;;;;;;;0.44;100.00;99632.94;5053759;28;20214;-73
2024/01/16 01:08:37;;;;;;;4.47;2.10;;;;;;;0.41;100.00;99637.59;5053890;28;20217;-73
2024/01/16 01:11:07;;;;;;;3.90;1.90;;;;;;;0.44;100.00;99640.84;5053543;28;20210;-73
2024/01/16 01:13:35;;;;;;;5.07;1.77;;;;;;;0.44;100.00;99635.56;5053623;28;20230;-73
2024/01/16 01:16:04;;;;;;;5.27;2.10;;;;;;;0.44;100.00;99640.84;5053747;28;20206;-73
2024/01/16 01:18:32;;;;;;;2.97;1.50;;;;;;;0.40;99.31;99660.47;5053416;28;20741;-73
2024/01/16 01:21:01;;;;;;;2.43;1.80;;;;;;;0.45;99.51;99653.00;5053321;28;20676;-73
2024/01/16 01:23:29;;;;;;;2.00;1.57;;;;;;;0.42;100.00;99655.91;5053557;28;20305;-73
2024/01/16 01:25:58;;;;;;;4.03;1.70;;;;;;;0.37;100.00;99657.22;5053592;28;20225;-73
2024/01/16 01:28:28;;;;;;;4.60;1.90;;;;;;;0.36;100.00;99653.75;5053598;28;20636;-73
2024/01/16 01:30:56;;;;;;;4.50;2.17;;;;;;;0.34;100.00;99670.66;5053250;28;20296;-73
2024/01/16 01:33:25;;;;;;;4.57;2.23;;;;;;;0.36;100.00;99669.56;5053390;28;20251;-73
2024/01/16 01:35:53;;;;;;;4.07;1.97;;;;;;;0.39;100.00;99664.03;5053097;28;20222;-73
2024/01/16 01:38:22;;;;;;;2.90;1.90;;;;;;;0.37;100.00;99660.72;5053466;28;20213;-73
2024/01/16 01:40:51;;;;;;;5.03;2.23;;;;;;;0.37;100.00;99665.97;5053407;28;20217;-73
2024/01/16 01:43:23;;;;;;;5.20;1.77;;;;;;;0.36;100.00;99653.75;5053326;28;20222;-72
2024/01/16 01:46:09;;;;;;;3.37;1.90;;;;;;;0.38;100.00;99653.63;5053106;28;20655;-73
2024/01/16 01:48:40;;;;;;;3.90;1.90;;;;;;;0.35;100.00;99652.06;5053131;28;20725;-73
2024/01/16 01:51:09;;;;;;;3.57;2.10;;;;;;;0.30;100.00;99653.41;5053359;28;20189;-73
2024/01/16 01:53:39;;;;;;;2.50;2.10;;;;;;;0.27;100.00;99657.13;5053139;28;20328;-73
2024/01/16 01:56:14;;;;;;;5.20;2.33;;;;;;;0.27;100.00;99665.03;5053024;28;20336;-73
2024/01/16 01:58:47;;;;;;;5.57;2.13;;;;;;;0.23;100.00;99666.22;5052999;28;20671;-73
2024/01/16 02:01:19;;;;;;;6.43;2.77;;;;;;;0.26;100.00;99668.63;5053274;28;20244;-73
2024/01/16 02:03:48;;;;;;;4.33;2.20;;;;;;;0.20;100.00;99673.53;5053195;28;20229;-73
2024/01/16 02:06:16;;;;;;;8.63;2.60;;;;;;;0.16;100.00;99675.56;5052868;28;20209;-73
2024/01/16 02:08:46;;;;;;;4.50;2.43;;;;;;;0.16;100.00;99672.94;5053855;28;20214;-72
2024/01/16 02:11:15;;;;;;;5.03;2.70;;;;;;;0.16;100.00;99672.94;5053147;28;20202;-73
2024/01/16 02:13:43;;;;;;;3.67;2.40;;;;;;;0.14;100.00;99684.53;5053780;28;20245;-73
2024/01/16 02:16:24;;;;;;;4.50;2.50;;;;;;;0.11;100.00;99685.59;5055286;28;20209;-73
2024/01/16 02:18:54;;;;;;;3.80;2.53;;;;;;;0.10;100.00;99689.22;5057062;28;20202;-72
2024/01/16 02:21:23;;;;;;;3.40;2.13;;;;;;;0.08;100.00;99683.22;5056982;28;20206;-73
2024/01/16 02:23:53;;;;;;;5.43;2.33;;;;;;;0.11;100.00;99696.13;5056572;28;20312;-73
2024/01/16 02:26:22;;;;;;;4.83;2.00;;;;;;;0.12;100.00;99692.53;5056569;28;20292;-74
2024/01/16 02:28:52;;;;;;;5.73;2.20;;;;;;;0.11;100.00;99685.59;5056562;28;20581;-73
2024/01/16 02:31:21;;;;;;;3.53;2.20;;;;;;;0.07;100.00;99694.69;5056840;28;20210;-73
2024/01/16 02:33:49;;;;;;;7.13;2.57;;;;;;;0.09;100.00;99703.31;5056678;28;20261;-73
2024/01/16 02:36:18;;;;;;;5.63;2.27;;;;;;;0.08;100.00;99716.56;5056373;28;20217;-73
2024/01/16 02:38:46;;;;;;;6.53;2.33;;;;;;;0.06;100.00;99711.44;5056408;28;20584;-73
2024/01/16 02:41:16;;;;;;;4.70;2.10;;;;;;;0.06;100.00;99714.09;5056625;28;20216;-73
2024/01/16 02:43:45;;;;;;;6.60;2.17;;;;;;;0.10;100.00;99715.53;5056548;28;20230;-73
2024/01/16 02:46:14;;;;;;;3.30;1.93;;;;;;;0.11;100.00;99713.69;5056563;28;20212;-73
2024/01/16 02:48:43;;;;;;;5.33;2.03;;;;;;;0.09;100.00;99711.22;5056190;28;20683;-73
2024/01/16 02:51:12;;;;;;;3.37;2.10;;;;;;;0.08;100.00;99719.22;5056464;28;20210;-74
2024/01/16 02:53:41;;;;;;;5.23;2.53;;;;;;;0.10;100.00;99720.78;5055929;28;20268;-73
2024/01/16 02:56:10;;;;;;;5.50;2.60;;;;;;;0.13;100.00;99736.34;5056078;28;20613;-73
2024/01/16 02:58:40;;;;;;;6.60;2.63;;;;;;;0.09;100.00;99737.53;5056351;28;20213;-73
2024/01/16 03:01:08;;;;;;;5.40;2.30;;;;;;;0.07;100.00;99742.03;5056301;28;20238;-73
2024/01/16 03:03:37;;;;;;;4.33;2.57;;;;;;;0.06;100.00;99740.41;5055862;28;20719;-72
2024/01/16 03:06:06;;;;;;;4.03;2.00;;;;;;;0.02;100.00;99746.00;5056192;28;20206;-73
2024/01/16 03:08:34;;;;;;;5.10;2.30;;;;;;;0.04;100.00;99752.81;5056164;28;20206;-73
2024/01/16 03:11:03;;;;;;;6.80;2.10;;;;;;;0.00;100.00;99756.66;5056076;28;20206;-72
2024/01/16 03:13:32;;;;;;;7.50;2.23;;;;;;;-0.03;100.00;99759.50;5055577;28;20230;-73
2024/01/16 03:16:02;;;;;;;3.20;2.23;;;;;;;-0.05;100.00;99758.78;5056002;28;20309;-73
2024/01/16 03:18:30;;;;;;;4.67;2.27;;;;;;;-0.06;100.00;99762.38;5055949;28;20205;-73
2024/01/16 03:21:00;;;;;;;3.87;2.80;;;;;;;-0.04;100.00;99760.47;5055940;28;20236;-73
2024/01/16 03:23:29;;;;;;;6.20;2.20;;;;;;;-0.01;100.00;99765.50;5055859;28;20308;-73
2024/01/16 03:25:57;;;;;;;6.13;3.10;;;;;;;-0.06;100.00;99763.22;5055506;28;20230;-73
2024/01/16 03:28:26;;;;;;;4.93;2.90;;;;;;;-0.03;100.00;99757.72;5054811;28;20260;-73
2024/01/16 03:30:54;;;;;;;7.37;3.37;;;;;;;-0.05;100.00;99769.31;5055704;28;20556;-73
2024/01/16 03:33:25;;;;;;;4.87;3.57;;;;;;;-0.09;100.00;99773.97;5055524;28;20230;-73
2024/01/16 03:35:53;;;;;;;7.87;3.87;;;;;;;-0.07;100.00;99766.78;5055347;28;20221;-73
2024/01/16 03:38:22;;;;;;;7.43;4.90;;;;;;;-0.06;100.00;99762.38;5055573;28;20644;-73
2024/01/16 03:40:51;;;;;;;4.83;3.00;;;;;;;-0.06;100.00;99768.47;5055496;28;20249;-73
2024/01/16 03:43:19;;;;;;;5.57;2.40;;;;;;;-0.06;100.00;99778.16;5055102;28;20646;-73
2024/01/16 03:45:48;;;;;;;6.90;2.90;;;;;;;-0.09;100.00;99773.13;5055434;28;20203;-73
2024/01/16 03:48:16;;;;;;;7.23;2.20;;;;;;;-0.09;100.00;99775.75;5055406;28;20209;-73
2024/01/16 03:50:47;;;;;;;7.17;2.50;;;;;;;-0.15;100.00;99784.13;5055354;28;20292;-73
2024/01/16 03:53:15;;;;;;;5.70;2.33;;;;;;;-0.14;100.00;99791.06;5055192;28;20222;-72
2024/01/16 03:55:44;;;;;;;5.67;2.37;;;;;;;-0.21;100.00;99792.47;5054918;28;20675;-72
2024/01/16 03:58:13;;;;;;;4.50;2.50;;;;;;;-0.22;100.00;99798.69;5054898;28;20210;-73
2024/01/16 04:00:41;;;;;;;8.70;3.03;;;;;;;-0.22;100.00;99801.31;5055152;28;20206;-73
2024/01/16 04:03:11;;;;;;;6.30;2.37;;;;;;;-0.25;100.00;99799.75;5055060;28;20233;-73
2024/01/16 04:05:39;;;;;;;6.30;2.30;;;;;;;-0.25;100.00;99812.06;5055055;28;20229;-73
2024/01/16 04:08:10;;;;;;;5.43;2.20;;;;;;;-0.24;100.00;99808.50;5054977;28;20285;-73
2024/01/16 04:10:38;;;;;;;9.33;2.77;;;;;;;-0.26;100.00;99818.28;5054938;28;20197;-74
2024/01/16 04:13:07;;;;;;;11.83;2.93;;;;;;;-0.24;100.00;99811.94;5054825;28;20232;-72
2024/01/16 04:15:38;;;;;;;7.93;3.00;;;;;;;-0.27;100.00;99811.34;5054881;28;20229;-73
2024/01/16 04:18:07;;;;;;;5.43;3.10;;;;;;;-0.27;100.00;99824.47;5054552;28;20208;-74
2024/01/16 04:20:36;;;;;;;6.47;3.17;;;;;;;-0.28;100.00;99820.19;5054766;28;20202;-74
2024/01/16 04:23:04;;;;;;;9.33;3.50;;;;;;;-0.28;100.00;99820.19;5054610;28;20226;-73
2024/01/16 04:25:34;;;;;;;6.33;3.33;;;;;;;-0.28;100.00;99820.19;5054658;28;20292;-73
2024/01/16 04:28:03;;;;;;;9.30;3.30;;;;;;;-0.25;100.00;99809.44;5054606;28;20206;-73
2024/01/16 04:30:31;;;;;;;12.83;3.80;;;;;;;-0.26;100.00;99807.75;5054546;28;20245;-73
2024/01/16 04:33:00;;;;;;;13.47;3.57;;;;;;;-0.28;100.00;99820.19;5054474;28;20244;-74
2024/01/16 04:35:29;;;;;;;10.67;3.23;;;;;;;-0.28;100.00;99815.78;5054300;28;20221;-74
2024/01/16 04:37:57;;;;;;;5.77;2.70;;;;;;;-0.25;100.00;99819.97;5054577;28;20206;-73
2024/01/16 04:40:26;;;;;;;7.43;2.87;;;;;;;-0.23;100.00;99815.41;5053485;28;20210;-74
2024/01/16 04:42:55;;;;;;;7.97;2.63;;;;;;;-0.22;100.00;99811.84;5054253;28;20222;-73
2024/01/16 04:45:24;;;;;;;6.73;2.77;;;;;;;-0.26;100.00;99810.38;5054291;28;20206;-73
2024/01/16 04:47:52;;;;;;;9.53;2.57;;;;;;;-0.28;100.00;99822.81;5054231;28;20293;-74
2024/01/16 04:50:21;;;;;;;8.03;2.93;;;;;;;-0.33;100.00;99819.69;5053937;28;20706;-74
2024/01/16 04:52:50;;;;;;;7.20;2.77;;;;;;;-0.32;100.00;99821.38;5053739;28;20703;-72
2024/01/16 04:55:21;;;;;;;12.57;2.97;;;;;;;-0.36;100.00;99827.81;5054088;28;20210;-73
2024/01/16 04:57:50;;;;;;;10.13;3.20;;;;;;;-0.38;100.00;99829.72;5054083;28;20292;-73
2024/01/16 05:00:20;;;;;;;6.03;2.47;;;;;;;-0.39;100.00;99830.66;5054065;28;20280;-73
2024/01/16 05:02:48;;;;;;;7.70;2.60;;;;;;;-0.34;100.00;99832.00;5053980;28;20268;-72
2024/01/16 05:05:17;;;;;;;9.80;2.40;;;;;;;-0.32;100.00;99826.63;5053629;28;20249;-72
2024/01/16 05:07:46;;;;;;;6.87;2.63;;;;;;;-0.33;100.00;99827.56;5053899;28;20210;-72
2024/01/16 05:10:14;;;;;;;12.23;2.50;;;;;;;-0.30;100.00;99829.97;5053871;28;20252;-74
2024/01/16 05:12:43;;;;;;;11.00;2.70;;;;;;;-0.35;100.00;99829.50;5053715;28;20230;-73
2024/01/16 05:15:12;;;;;;;8.77;2.53;;;;;;;-0.37;100.00;99826.97;5053381;28;20261;-73
2024/01/16 05:17:42;;;;;;;6.33;2.10;;;;;;;-0.34;100.00;99825.91;5053736;28;20293;-73
2024/01/16 05:20:11;;;;;;;4.40;2.40;;;;;;;-0.38;100.00;99825.31;5053746;28;20229;-74
2024/01/16 05:22:39;;;;;;;7.80;2.97;;;;;;;-0.38;100.00;99829.72;5053272;28;20758;-73
2024/01/16 05:25:09;;;;;;;5.27;2.47;;;;;;;-0.38;100.00;99833.19;5053656;28;20210;-73
2024/01/16 05:27:37;;;;;;;10.63;3.33;;;;;;;-0.40;100.00;99834.25;5053594;28;20221;-73
2024/01/16 05:30:07;;;;;;;9.60;3.27;;;;;;;-0.41;100.00;99836.03;5053579;28;20293;-73
2024/01/16 05:32:37;;;;;;;9.40;3.10;;;;;;;-0.41;100.00;99829.94;5053502;28;20226;-73
2024/01/16 05:35:07;;;;;;;11.83;2.87;;;;;;;-0.42;100.00;99836.16;5052975;28;20240;-73
2024/01/16 05:37:36;;;;;;;10.50;3.00;;;;;;;-0.41;100.00;99827.31;5053514;28;20190;-73
2024/01/16 05:40:07;;;;;;;9.60;3.30;;;;;;;-0.37;100.00;99834.00;5053431;28;20577;-73
2024/01/16 05:42:35;;;;;;;11.73;3.13;;;;;;;-0.42;100.00;99833.53;5053412;28;20313;-73
2024/01/16 05:45:05;;;;;;;8.33;3.50;;;;;;;-0.45;100.00;99836.38;5053355;28;20292;-73
2024/01/16 05:47:33;;;;;;;11.73;3.30;;;;;;;-0.45;100.00;99836.38;5053344;28;20289;-73
2024/01/16 05:50:02;;;;;;;9.37;3.27;;;;;;;-0.44;100.00;99830.16;5054020;28;20558;-73
2024/01/16 05:52:32;;;;;;;9.90;3.17;;;;;;;-0.52;100.00;99836.84;5059887;28;20229;-73
2024/01/16 05:55:00;;;;;;;7.17;2.93;;;;;;;-0.49;100.00;99837.56;5059878;28;20312;-73
2024/01/16 05:57:31;;;;;;;11.67;3.40;;;;;;;-0.51;100.00;99845.53;5059917;28;20235;-73
2024/01/16 06:00:01;;;;;;;8.57;3.20;;;;;;;-0.52;100.00;99839.47;5059957;28;20186;-73
2024/01/16 06:02:30;;;;;;;12.37;3.57;;;;;;;-0.49;100.00;99842.81;5059844;28;20229;-73
2024/01/16 06:04:59;;;;;;;12.27;3.63;;;;;;;-0.51;100.00;99841.13;5059558;28;20664;-73
2024/01/16 06:07:27;;;;;;;8.27;2.63;;;;;;;-0.53;100.00;99837.78;5059839;28;20206;-74
2024/01/16 06:09:57;;;;;;;8.37;2.90;;;;;;;-0.55;100.00;99834.41;5059841;28;20292;-74
2024/01/16 06:12:25;;;;;;;12.57;3.47;;;;;;;-0.59;100.00;99840.88;5059726;28;20271;-73
2024/01/16 06:14:54;;;;;;;10.07;3.20;;;;;;;-0.60;100.00;99841.81;5059382;28;20654;-73
2024/01/16 06:17:22;;;;;;;6.47;3.03;;;;;;;-0.56;100.00;99837.16;5059718;28;20209;-73
2024/01/16 06:19:51;;;;;;;11.40;3.70;;;;;;;-0.57;100.00;99831.06;5059770;28;20251;-73
2024/01/16 06:22:20;;;;;;;7.50;3.50;;;;;;;-0.59;100.00;99835.59;5059661;28;20225;-73
2024/01/16 06:24:48;;;;;;;9.50;3.70;;;;;;;-0.54;100.00;99835.25;5059420;28;20686;-74
2024/01/16 06:27:19;;;;;;;13.63;4.27;;;;;;;-0.59;100.00;99830.34;5059685;28;20212;-73
2024/01/16 06:29:48;;;;;;;7.17;3.53;;;;;;;-0.56;100.00;99832.75;5059695;28;20191;-73
2024/01/16 06:32:17;;;;;;;10.47;4.07;;;;;;;-0.55;100.00;99839.66;5059270;28;20256;-73
2024/01/16 06:34:45;;;;;;;13.30;4.10;;;;;;;-0.52;100.00;99834.22;5059306;28;20261;-73
2024/01/16 06:37:13;;;;;;;10.60;4.13;;;;;;;-0.53;100.00;99836.94;5059625;28;20216;-73
2024/01/16 06:39:42;;;;;;;12.63;3.80;;;;;;;-0.53;100.00;99845.66;5060145;28;20234;-75
2024/01/16 06:42:11;;;;;;;9.13;3.67;;;;;;;-0.50;100.00;99852.47;5059576;28;20206;-73
2024/01/16 06:44:40;;;;;;;11.67;4.40;;;;;;;-0.51;100.00;99840.28;5059576;28;20212;-73
2024/01/16 06:47:09;;;;;;;8.47;3.87;;;;;;;-0.52;100.00;99844.72;5059566;28;20283;-73
2024/01/16 06:49:37;;;;;;;12.70;4.50;;;;;;;-0.53;100.00;99845.66;5059537;28;20257;-73
2024/01/16 06:52:07;;;;;;;9.43;4.70;;;;;;;-0.48;100.00;99853.22;5059414;28;20209;-73
2024/01/16 06:54:36;;;;;;;8.03;4.90;;;;;;;-0.44;100.00;99845.94;5059377;28;20202;-73
2024/01/16 06:57:05;;;;;;;10.03;3.77;;;;;;;-0.44;100.00;99865.19;5059137;28;20372;-73
2024/01/16 06:59:33;;;;;;;6.53;3.70;;;;;;;-0.45;100.00;99854.78;5059398;28;20301;-73
2024/01/16 07:02:03;;;;;;;11.60;4.23;;;;;;;-0.48;100.00;99860.28;5057088;28;20206;-73
2024/01/16 07:04:32;;;;;;;12.03;4.23;;;;;;;-0.45;100.00;99854.78;5056234;28;20248;-73
2024/01/16 07:07:00;;;;;;;13.37;4.67;;;;;;;-0.45;100.00;99860.03;5056176;28;20238;-73
2024/01/16 07:09:29;;;;;;;10.10;3.97;;;;;;;-0.47;100.00;99857.50;5056074;28;20220;-74
2024/01/16 07:11:57;;;;;;;10.40;4.43;;;;;;;-0.45;100.00;99860.03;5056103;28;20301;-73
2024/01/16 07:14:26;;;;;;;12.77;4.83;;;;;;;-0.45;100.00;99866.16;5056047;28;20206;-74
2024/01/16 07:16:54;;;;;;;9.97;4.23;;;;;;;-0.45;100.00;99860.03;5055885;28;20257;-74
2024/01/16 07:19:24;;;;;;;9.77;4.60;;;;;;;-0.45;100.00;99860.88;5055961;28;20206;-73
2024/01/16 07:21:53;;;;;;;11.17;4.27;;;;;;;-0.45;100.00;99868.78;5055891;28;20202;-73
2024/01/16 07:24:21;;;;;;;9.10;4.20;;;;;;;-0.43;100.00;99866.03;5055495;28;20225;-73
2024/01/16 07:26:50;;;;;;;8.93;4.50;;;;;;;-0.42;100.00;99868.56;5055817;28;20301;-73
2024/01/16 07:29:18;;;;;;;10.70;4.60;;;;;;;-0.44;100.00;99872.22;5055463;28;20687;-74
2024/01/16 07:31:47;;;;;;;10.07;4.77;;;;;;;-0.45;100.00;99875.81;5055724;28;20206;-74
2024/01/16 07:34:19;;;;;;;10.57;5.10;;;;;;;-0.42;100.00;99871.19;5055439;28;20265;-73
2024/01/16 07:36:50;;;;;;;15.60;4.90;;;;;;;-0.37;100.00;99873.44;5055266;28;20736;-73
2024/01/16 07:39:18;;;;;;;10.40;5.10;;;;;;;-0.39;100.00;99873.59;5055572;28;20302;-73
2024/01/16 07:41:46;;;;;;;13.70;4.50;;;;;;;-0.39;100.00;99878.00;5055509;28;20256;-73
2024/01/16 07:44:15;;;;;;;10.57;5.50;;;;;;;-0.41;100.00;99872.03;5055421;28;20309;-73
2024/01/16 07:46:44;;;;;;;12.53;5.57;;;;;;;-0.41;100.00;99866.75;5055160;28;20664;-74
2024/01/16 07:49:12;;;;;;;14.67;5.83;;;;;;;-0.41;100.00;99866.75;5055423;28;20202;-74
2024/01/16 07:51:40;;;;;;;10.40;5.23;;;;;;;-0.44;100.00;99859.06;5055350;28;20267;-75
2024/01/16 07:54:13;;;;;;;9.93;5.10;;;;;;;-0.42;100.00;99865.06;5055224;28;20248;-74
2024/01/16 07:56:41;;;;;;;10.50;5.00;;;;;;;-0.44;100.00;99866.97;5055283;28;20229;-74
2024/01/16 07:59:10;;;;;;;16.70;5.90;;;;;;;-0.44;100.00;99869.59;5055196;28;20212;-76
2024/01/16 08:01:38;;;;;;;15.10;6.20;;;;;;;-0.43;100.00;99873.91;5055190;28;20210;-75
2024/01/16 08:04:07;;;;;;;13.07;4.97;;;;;;;-0.42;100.00;99870.34;5055745;28;20624;-74
2024/01/16 08:06:35;;;;;;;13.10;5.23;;;;;;;-0.43;100.00;99876.53;5055065;28;20298;-74
2024/01/16 08:09:05;;;;;;;8.93;5.50;;;;;;;-0.42;100.00;99875.59;5055025;28;20291;-73
2024/01/16 08:11:36;;;;;;;11.63;5.00;;;;;;;-0.44;100.00;99883.59;5054665;28;20417;-74
2024/01/16 08:14:05;;;;;;;10.47;5.50;;;;;;;-0.41;100.00;99888.63;5054774;28;20630;-70
2024/01/16 08:16:35;;;;;;;15.37;5.77;;;;;;;-0.43;100.00;99885.28;5054807;28;20257;-70
2024/01/16 08:19:04;;;;;;;15.37;5.50;;;;;;;-0.42;100.00;99894.00;5054817;28;20274;-70
2024/01/16 08:21:32;;;;;;;16.77;5.43;;;;;;;-0.44;100.00;99886.22;5054816;28;20206;-70
2024/01/16 08:24:01;;;;;;;10.20;5.20;;;;;;;-0.42;100.00;99880.84;5054693;28;20257;-70
2024/01/16 08:26:30;;;;;;;14.13;5.93;;;;;;;-0.42;100.00;99880.84;5054369;28;20667;-71
2024/01/16 08:29:00;;;;;;;15.57;5.80;;;;;;;-0.41;100.00;99882.53;5054595;28;20296;-70
2024/01/16 08:31:29;;;;;;;16.23;6.43;;;;;;;-0.39;100.00;99889.38;5054576;28;20230;-70
2024/01/16 08:33:57;;;;;;;11.80;5.87;;;;;;;-0.38;100.00;99888.41;5054459;28;20222;-70
2024/01/16 08:36:26;;;;;;;9.67;5.80;;;;;;;-0.37;100.00;99882.19;5053978;28;20226;-70
2024/01/16 08:38:55;;;;;;;12.20;4.93;;;;;;;-0.35;100.00;99887.34;5054423;28;20300;-70
2024/01/16 08:41:24;;;;;;;8.17;4.47;;;;;;;-0.34;100.00;99889.03;5054060;28;20210;-70
2024/01/16 08:43:54;;;;;;;10.07;5.10;;;;;;;-0.34;100.00;99889.03;5054239;28;20754;-70
2024/01/16 08:46:23;;;;;;;9.60;4.90;;;;;;;-0.35;100.00;99882.94;5053956;28;20679;-70
2024/01/16 08:48:52;;;;;;;10.03;5.23;;;;;;;-0.34;100.00;99895.09;5054256;28;20292;-70
2024/01/16 08:51:20;;;;;;;12.00;5.43;;;;;;;-0.32;100.00;99887.97;5054211;28;20214;-70
2024/01/16 08:53:49;;;;;;;10.87;5.23;;;;;;;-0.29;100.00;99886.88;5053751;28;20279;-70
2024/01/16 08:56:18;;;;;;;17.37;5.60;;;;;;;-0.28;100.00;99883.31;5053727;28;20726;-70
2024/01/16 08:58:46;;;;;;;9.47;5.00;;;;;;;-0.26;100.00;99886.66;5053695;28;20622;-71
2024/01/16 09:01:15;;;;;;;8.27;5.37;;;;;;;-0.23;100.00;99887.28;5053989;28;20301;-70
2024/01/16 09:03:44;;;;;;;9.73;5.57;;;;;;;-0.22;100.00;99894.22;5053901;28;20227;-70
2024/01/16 09:06:13;;;;;;;13.70;5.90;;;;;;;-0.21;100.00;99890.66;5053939;28;20309;-70
2024/01/16 09:08:42;;;;;;;14.67;5.73;;;;;;;-0.20;100.00;99888.84;5053555;28;20628;-70
2024/01/16 09:11:11;;;;;;;13.47;5.70;;;;;;;-0.19;100.00;99887.88;5053811;28;20229;-70
2024/01/16 09:13:40;;;;;;;9.90;5.27;;;;;;;-0.18;100.00;99889.56;5053401;28;20604;-70
2024/01/16 09:16:08;;;;;;;9.30;5.40;;;;;;;-0.17;100.00;99888.63;5053683;28;20252;-70
2024/01/16 09:18:37;;;;;;;13.00;6.70;;;;;;;-0.17;100.00;99881.56;5053396;28;20743;-70
2024/01/16 09:21:07;;;;;;;11.60;5.57;;;;;;;-0.16;100.00;99888.50;5053426;28;20692;-70
2024/01/16 09:23:35;;;;;;;9.97;5.63;;;;;;;-0.16;100.00;99890.28;5053612;28;20257;-70
2024/01/16 09:26:04;;;;;;;8.93;5.33;;;;;;;-0.14;100.00;99885.78;5053069;28;20217;-70
2024/01/16 09:28:35;;;;;;;14.03;5.73;;;;;;;-0.13;100.00;99893.53;5053565;28;20254;-70
2024/01/16 09:31:04;;;;;;;12.20;5.77;;;;;;;-0.11;100.00;99888.19;5053288;28;20666;-70
2024/01/16 09:33:32;;;;;;;14.77;6.43;;;;;;;-0.09;100.00;99884.47;5053455;28;20225;-71
2024/01/16 09:36:01;;;;;;;11.67;6.10;;;;;;;-0.08;99.94;99895.84;5053042;28;20308;-70
2024/01/16 09:38:31;;;;;;;12.10;5.20;;;;;;;-0.07;100.00;99887.00;5053545;28;20228;-70
2024/01/16 09:41:02;;;;;;;9.27;5.53;;;;;;;-0.06;99.45;99886.03;5053073;28;20300;-70
2024/01/16 09:43:32;;;;;;;9.33;5.10;;;;;;;-0.06;98.71;99889.50;5053048;28;20699;-70
2024/01/16 09:46:05;;;;;;;15.00;6.47;;;;;;;-0.06;99.33;99894.75;5053380;28;20245;-70
2024/01/16 09:48:33;;;;;;;10.43;5.47;;;;;;;-0.05;100.00;99899.09;5053396;28;20194;-70
2024/01/16 09:51:02;;;;;;;12.30;5.70;;;;;;;-0.04;100.00;99898.13;5053294;28;20207;-70
2024/01/16 09:53:33;;;;;;;10.80;5.53;;;;;;;0.00;99.77;99898.75;5053275;28;20237;-70
2024/01/16 09:56:05;;;;;;;11.13;6.00;;;;;;;0.02;99.47;99902.09;5053328;28;20233;-70
2024/01/16 09:58:37;;;;;;;12.70;6.20;;;;;;;0.03;99.08;99903.78;5053225;28;20249;-70
2024/01/16 10:01:06;;;;;;;11.30;6.37;;;;;;;0.06;99.92;99908.81;5053288;28;20229;-70
2024/01/16 10:03:36;;;;;;;15.00;6.17;;;;;;;0.08;98.99;99906.06;5053175;28;20375;-70
2024/01/16 10:06:07;;;;;;;10.47;5.53;;;;;;;0.13;99.07;99903.94;5053195;28;20208;-70
2024/01/16 10:08:37;;;;;;;13.60;6.33;;;;;;;0.16;99.17;99909.81;5053220;28;20186;-70
2024/01/16 10:11:06;;;;;;;12.97;5.70;;;;;;;0.20;99.54;99906.00;5053148;28;20212;-70
2024/01/16 10:13:35;;;;;;;14.70;6.27;;;;;;;0.22;99.75;99909.34;5053054;28;20272;-70
2024/01/16 10:16:03;;;;;;;11.80;5.87;;;;;;;0.24;99.17;99902.16;5052772;28;20623;-70
2024/01/16 10:18:33;;;;;;;9.57;5.43;;;;;;;0.25;98.65;99911.75;5052960;28;20317;-70
2024/01/16 10:21:02;;;;;;;9.43;5.57;;;;;;;0.29;99.02;99917.59;5053878;28;20252;-70
2024/01/16 10:23:33;;;;;;;11.33;5.63;;;;;;;0.30;99.61;99911.41;5052642;28;20699;-70
2024/01/16 10:26:11;;;;;;;11.63;5.37;;;;;;;0.34;99.11;99904.97;5053049;28;20571;-70
2024/01/16 10:28:41;;;;;;;9.60;5.30;;;;;;;0.35;98.85;99906.59;5052687;28;20710;-70
2024/01/16 10:31:11;;;;;;;9.87;5.13;;;;;;;0.37;98.79;99905.56;5053048;28;20190;-70
2024/01/16 10:33:40;;;;;;;11.37;6.07;;;;;;;0.38;98.28;99907.22;5052572;28;20581;-70
2024/01/16 10:36:14;;;;;;;11.50;5.67;;;;;;;0.41;98.42;99903.53;5052528;28;20218;-70
2024/01/16 10:38:44;;;;;;;10.23;4.87;;;;;;;0.41;98.06;99906.97;5055790;28;20217;-70
2024/01/16 10:41:16;;;;;;;11.40;5.23;;;;;;;0.44;98.77;99909.41;5056677;28;20212;-70
2024/01/16 10:43:45;;;;;;;11.47;5.80;;;;;;;0.45;98.96;99913.69;5056593;28;20234;-70
2024/01/16 10:46:15;;;;;;;10.40;5.33;;;;;;;0.48;99.26;99910.81;5056280;28;20750;-70
2024/01/16 10:48:45;;;;;;;12.03;4.90;;;;;;;0.50;97.55;99906.31;5056613;28;20210;-70
2024/01/16 10:51:16;;;;;;;7.07;4.67;;;;;;;0.50;96.93;99908.94;5056503;28;20244;-70
2024/01/16 10:53:46;;;;;;;9.33;5.00;;;;;;;0.52;97.59;99916.69;5056454;28;20230;-70
2024/01/16 10:56:20;;;;;;;11.67;4.87;;;;;;;0.52;96.55;99907.00;5056409;28;20248;-70
2024/01/16 10:58:58;;;;;;;10.10;4.90;;;;;;;0.52;96.65;99912.28;5056230;28;20252;-70
2024/01/16 11:01:27;;;;;;;8.63;4.70;;;;;;;0.53;96.33;99910.50;5056280;28;20269;-70
2024/01/16 11:03:59;;;;;;;10.63;4.73;;;;;;;0.54;96.90;99909.53;5056151;28;20279;-70
2024/01/16 11:06:28;;;;;;;10.27;4.73;;;;;;;0.55;97.56;99911.19;5056215;28;20273;-70
2024/01/16 11:08:59;;;;;;;9.20;4.83;;;;;;;0.57;96.56;99914.56;5056650;28;20206;-70
2024/01/16 11:11:30;;;;;;;9.90;4.77;;;;;;;0.57;96.29;99916.38;5056156;28;20197;-70
2024/01/16 11:13:59;;;;;;;7.27;4.57;;;;;;;0.59;95.66;99917.91;5055982;28;20229;-70
2024/01/16 11:16:29;;;;;;;14.73;5.10;;;;;;;0.63;95.58;99918.53;5056033;28;20306;-70
2024/01/16 11:18:58;;;;;;;10.73;4.87;;;;;;;0.62;95.05;99916.88;5055884;28;20230;-70
2024/01/16 11:21:47;;;;;;;7.20;4.27;;;;;;;0.63;94.39;99913.25;5056094;28;20206;-70
2024/01/16 11:24:16;;;;;;;9.40;4.60;;;;;;;0.63;94.14;99916.72;5055493;28;20584;-70
2024/01/16 11:26:46;;;;;;;9.20;4.53;;;;;;;0.63;94.26;99913.25;5055825;28;20297;-70
2024/01/16 11:29:36;;;;;;;8.20;4.37;;;;;;;0.65;93.72;99914.00;5055766;28;20214;-70
2024/01/16 11:32:05;;;;;;;7.83;4.57;;;;;;;0.66;93.31;99924.41;5055456;28;20252;-70
2024/01/16 11:34:56;;;;;;;8.53;4.40;;;;;;;0.67;93.61;99922.59;5055822;28;20584;-70
2024/01/16 11:37:29;;;;;;;7.67;4.60;;;;;;;0.67;94.17;99909.44;5055520;28;20255;-70